createdAt,value
2023-01-19T00:01:07.882Z,11.87
2023-01-19T00:03:37.153Z,10.60
2023-01-19T00:06:08.241Z,9.80
2023-01-19T00:08:37.695Z,12.53
2023-01-19T00:11:06.394Z,10.90
2023-01-19T00:13:34.708Z,10.80
2023-01-19T00:16:03.236Z,10.27
2023-01-19T00:18:31.678Z,10.47
2023-01-19T00:21:00.149Z,9.10
2023-01-19T00:23:29.937Z,10.17
2023-01-19T00:25:58.395Z,9.73
2023-01-19T00:28:26.738Z,9.93
2023-01-19T00:30:55.072Z,9.53
2023-01-19T00:33:23.777Z,9.37
2023-01-19T00:35:53.087Z,9.37
2023-01-19T00:38:21.917Z,8.67
2023-01-19T00:40:51.877Z,8.20
2023-01-19T00:43:20.448Z,9.77
2023-01-19T00:45:48.961Z,9.07
2023-01-19T00:48:17.370Z,8.37
2023-01-19T00:50:45.738Z,8.77
2023-01-19T00:53:14.928Z,7.57
2023-01-19T00:55:43.335Z,8.17
2023-01-19T00:58:13.193Z,7.83
2023-01-19T01:00:41.568Z,7.60
2023-01-19T01:03:11.021Z,7.33
2023-01-19T01:05:42.444Z,7.23
2023-01-19T01:08:10.909Z,7.03
2023-01-19T01:10:39.385Z,6.63
2023-01-19T01:13:20.345Z,6.47
2023-01-19T01:15:53.131Z,6.93
2023-01-19T01:18:22.565Z,6.37
2023-01-19T01:20:51.211Z,6.33
2023-01-19T01:23:22.772Z,6.73
2023-01-19T01:25:51.386Z,6.73
2023-01-19T01:28:19.949Z,5.93
2023-01-19T01:30:48.433Z,6.80
2023-01-19T01:33:40.773Z,6.33
2023-01-19T01:36:07.327Z,6.63
2023-01-19T01:38:35.862Z,6.33
2023-01-19T01:41:04.822Z,5.63
2023-01-19T01:43:45.347Z,6.90
2023-01-19T01:46:16.238Z,5.60
2023-01-19T01:48:52.769Z,6.10
2023-01-19T01:51:26.751Z,6.80
2023-01-19T01:54:10.626Z,7.43
2023-01-19T01:56:41.574Z,6.73
2023-01-19T01:59:18.179Z,6.13
2023-01-19T02:02:04.189Z,6.67
2023-01-19T02:04:34.295Z,6.70
2023-01-19T02:07:21.191Z,6.77
2023-01-19T02:10:08.020Z,6.50
2023-01-19T02:12:53.746Z,7.40
2023-01-19T02:15:22.422Z,5.53
2023-01-19T02:17:50.968Z,5.53
2023-01-19T02:20:25.597Z,5.67
2023-01-19T02:22:56.614Z,5.23
2023-01-19T02:25:26.584Z,6.40
2023-01-19T02:27:55.991Z,5.30
2023-01-19T02:30:24.772Z,4.50
2023-01-19T02:32:53.469Z,6.30
2023-01-19T02:35:23.119Z,5.47
2023-01-19T02:37:52.248Z,5.43
2023-01-19T02:40:24.445Z,5.20
2023-01-19T02:42:58.704Z,5.33
2023-01-19T02:45:28.028Z,5.40
2023-01-19T02:47:57.238Z,6.47
2023-01-19T02:50:49.931Z,6.63
2023-01-19T02:53:34.318Z,6.00
2023-01-19T02:56:14.018Z,6.30
2023-01-19T02:58:51.304Z,7.07
2023-01-19T03:01:27.124Z,6.63
2023-01-19T03:04:00.978Z,7.43
2023-01-19T03:06:42.230Z,8.83
2023-01-19T03:09:16.147Z,7.63
2023-01-19T03:11:53.441Z,8.27
2023-01-19T03:14:26.383Z,8.07
2023-01-19T03:16:58.627Z,8.77
2023-01-19T03:19:30.077Z,8.03
2023-01-19T03:22:01.612Z,8.80
2023-01-19T03:24:34.240Z,9.77
2023-01-19T03:27:08.316Z,10.20
2023-01-19T03:29:40.544Z,8.10
2023-01-19T03:32:14.495Z,9.03
2023-01-19T03:34:45.295Z,8.97
2023-01-19T03:37:17.218Z,9.37
2023-01-19T03:39:45.680Z,8.30
2023-01-19T03:42:17.395Z,8.03
2023-01-19T03:44:50.718Z,8.17
2023-01-19T03:47:21.378Z,8.07
2023-01-19T03:49:52.985Z,7.90
2023-01-19T03:52:29.648Z,8.13
2023-01-19T03:54:58.337Z,8.27
2023-01-19T03:57:27.746Z,8.33
2023-01-19T03:59:57.783Z,8.77
2023-01-19T04:02:26.672Z,7.87
2023-01-19T04:05:03.887Z,8.00
2023-01-19T04:07:32.314Z,7.67
2023-01-19T04:10:00.689Z,7.90
2023-01-19T04:12:29.917Z,8.20
2023-01-19T04:14:59.702Z,7.53
2023-01-19T04:17:27.992Z,8.23
2023-01-19T04:19:57.371Z,7.50
2023-01-19T04:22:25.852Z,7.73
2023-01-19T04:24:55.742Z,8.80
2023-01-19T04:27:24.120Z,8.40
2023-01-19T04:29:52.509Z,8.63
2023-01-19T04:32:22.346Z,8.80
2023-01-19T04:34:51.904Z,8.97
2023-01-19T04:37:20.266Z,10.00
2023-01-19T04:39:48.968Z,8.90
2023-01-19T04:42:17.944Z,10.10
2023-01-19T04:44:46.294Z,9.23
2023-01-19T04:47:15.880Z,9.40
2023-01-19T04:49:46.855Z,9.87
2023-01-19T04:52:15.409Z,10.10
2023-01-19T04:54:44.183Z,9.97
2023-01-19T04:57:12.633Z,9.43
2023-01-19T04:59:41.104Z,10.00
2023-01-19T05:02:09.784Z,10.63
2023-01-19T05:04:38.225Z,10.40
2023-01-19T05:07:08.019Z,11.77
2023-01-19T05:09:36.656Z,11.17
2023-01-19T05:12:05.663Z,11.60
2023-01-19T05:14:34.606Z,11.87
2023-01-19T05:17:03.322Z,11.57
2023-01-19T05:19:31.879Z,11.73
2023-01-19T05:22:00.831Z,12.20
2023-01-19T05:24:31.030Z,11.77
2023-01-19T05:26:59.714Z,12.47
2023-01-19T05:29:28.377Z,12.10
2023-01-19T05:31:56.940Z,11.23
2023-01-19T05:34:25.394Z,12.13
2023-01-19T05:36:53.823Z,13.17
2023-01-19T05:39:22.248Z,12.97
2023-01-19T05:41:52.073Z,13.87
2023-01-19T05:44:20.492Z,14.73
2023-01-19T05:46:49.021Z,14.40
2023-01-19T05:49:17.651Z,14.87
2023-01-19T05:51:46.451Z,16.40
2023-01-19T05:54:16.779Z,16.73
2023-01-19T05:56:45.677Z,17.83
2023-01-19T05:59:17.606Z,17.53
2023-01-19T06:01:45.945Z,16.30
2023-01-19T06:04:15.512Z,17.60
2023-01-19T06:06:43.994Z,17.47
2023-01-19T06:09:15.611Z,18.77
2023-01-19T06:11:44.280Z,18.47
2023-01-19T06:14:18.903Z,17.33
2023-01-19T06:16:47.417Z,18.57
2023-01-19T06:19:16.246Z,20.00
2023-01-19T06:21:49.856Z,19.27
2023-01-19T06:24:18.168Z,20.97
2023-01-19T06:26:46.592Z,20.80
2023-01-19T06:29:15.728Z,20.03
2023-01-19T06:31:45.540Z,20.20
2023-01-19T06:34:14.027Z,20.60
2023-01-19T06:36:45.374Z,22.70
2023-01-19T06:39:14.069Z,20.67
2023-01-19T06:41:42.451Z,25.33
2023-01-19T06:44:10.911Z,21.93
2023-01-19T06:46:39.296Z,22.00
2023-01-19T06:49:09.278Z,22.20
2023-01-19T06:51:38.995Z,21.60
2023-01-19T06:54:07.393Z,24.03
2023-01-19T06:56:35.894Z,26.10
2023-01-19T06:59:04.532Z,24.93
2023-01-19T07:01:33.495Z,22.27
2023-01-19T07:04:02.618Z,21.07
2023-01-19T07:06:32.403Z,21.90
2023-01-19T07:09:04.772Z,21.03
2023-01-19T07:11:34.080Z,20.53
2023-01-19T07:14:04.057Z,21.00
2023-01-19T07:16:32.516Z,21.70
2023-01-19T07:19:01.991Z,22.03
2023-01-19T07:21:32.062Z,21.77
2023-01-19T07:24:00.450Z,22.20
2023-01-19T07:26:28.941Z,22.30
2023-01-19T07:28:57.393Z,22.07
2023-01-19T07:31:26.166Z,21.93
2023-01-19T07:33:54.850Z,23.83
2023-01-19T07:36:23.187Z,22.67
2023-01-19T07:38:52.954Z,23.53
2023-01-19T07:41:22.427Z,23.40
2023-01-19T07:43:52.924Z,24.03
2023-01-19T07:46:21.355Z,24.30
2023-01-19T07:48:50.220Z,23.23
2023-01-19T07:51:19.143Z,23.50
2023-01-19T07:53:47.637Z,23.13
2023-01-19T07:56:17.823Z,23.87
2023-01-19T07:58:46.893Z,23.60
2023-01-19T08:01:15.512Z,24.53
2023-01-19T08:03:43.884Z,23.37
2023-01-19T08:06:20.625Z,22.97
2023-01-19T08:08:49.234Z,22.07
2023-01-19T08:11:19.046Z,22.20
2023-01-19T08:13:47.412Z,22.27
2023-01-19T08:16:15.762Z,21.57
2023-01-19T08:18:44.191Z,21.77
2023-01-19T08:21:12.523Z,22.17
2023-01-19T08:23:40.932Z,21.03
2023-01-19T08:26:21.556Z,22.07
2023-01-19T08:28:50.030Z,21.90
2023-01-19T08:31:21.067Z,20.63
2023-01-19T08:33:50.212Z,20.90
2023-01-19T08:36:18.995Z,20.40
2023-01-19T08:38:48.118Z,21.77
2023-01-19T08:41:17.171Z,18.57
2023-01-19T08:43:47.217Z,22.07
2023-01-19T08:46:17.695Z,22.83
2023-01-19T08:48:48.243Z,23.17
2023-01-19T08:51:16.646Z,18.53
2023-01-19T08:53:45.024Z,19.03
2023-01-19T08:56:15.085Z,17.33
2023-01-19T08:58:44.651Z,17.07
2023-01-19T09:01:17.101Z,15.17
2023-01-19T09:03:45.742Z,16.53
2023-01-19T09:06:17.147Z,15.87
2023-01-19T09:08:45.734Z,16.70
2023-01-19T09:11:17.458Z,17.63
2023-01-19T09:13:46.156Z,16.70
2023-01-19T09:16:16.139Z,14.87
2023-01-19T09:18:45.858Z,16.40
2023-01-19T09:21:15.176Z,18.63
2023-01-19T09:23:43.975Z,19.33
2023-01-19T09:26:12.626Z,19.40
2023-01-19T09:28:41.014Z,18.83
2023-01-19T09:31:10.731Z,17.93
2023-01-19T09:33:40.679Z,19.73
2023-01-19T09:36:09.526Z,17.87
2023-01-19T09:38:38.592Z,18.17
2023-01-19T09:41:20.119Z,16.87
2023-01-19T09:43:53.992Z,18.23
2023-01-19T09:46:27.337Z,18.13
2023-01-19T09:48:59.048Z,16.73
2023-01-19T09:51:29.529Z,17.20
2023-01-19T09:54:13.409Z,15.93
2023-01-19T09:56:42.082Z,16.30
2023-01-19T09:59:23.000Z,17.43
2023-01-19T10:02:07.654Z,18.30
2023-01-19T10:04:41.057Z,17.80
2023-01-19T10:07:33.573Z,18.03
2023-01-19T10:10:14.537Z,17.57
2023-01-19T10:13:04.431Z,17.20
2023-01-19T10:15:46.772Z,17.73
2023-01-19T10:18:20.334Z,18.07
2023-01-19T10:20:53.742Z,16.67
2023-01-19T10:23:42.400Z,14.93
2023-01-19T10:26:15.025Z,16.23
2023-01-19T10:28:43.977Z,15.87
2023-01-19T10:31:13.544Z,18.93
2023-01-19T10:33:42.120Z,16.63
2023-01-19T10:36:19.385Z,15.17
2023-01-19T10:38:48.929Z,15.33
2023-01-19T10:41:24.130Z,13.30
2023-01-19T10:44:00.966Z,14.83
2023-01-19T10:46:38.749Z,15.03
2023-01-19T10:49:07.761Z,15.80
2023-01-19T10:51:48.424Z,15.87
2023-01-19T10:54:16.994Z,15.27
2023-01-19T10:56:53.670Z,14.77
2023-01-19T10:59:36.618Z,14.10
2023-01-19T11:02:18.667Z,15.83
2023-01-19T11:04:50.156Z,13.47
2023-01-19T11:07:23.628Z,12.93
2023-01-19T11:10:22.155Z,13.83
2023-01-19T11:13:02.964Z,13.17
2023-01-19T11:15:35.763Z,12.77
2023-01-19T11:18:06.676Z,11.17
2023-01-19T11:20:50.219Z,12.37
2023-01-19T11:23:27.362Z,10.80
2023-01-19T11:25:58.695Z,11.40
2023-01-19T11:28:30.098Z,11.57
2023-01-19T11:31:01.591Z,10.10
2023-01-19T11:33:36.069Z,11.10
2023-01-19T11:36:07.927Z,11.33
2023-01-19T11:38:44.447Z,9.87
2023-01-19T11:41:19.949Z,11.00
2023-01-19T11:43:51.357Z,10.90
2023-01-19T11:46:20.699Z,9.73
2023-01-19T11:48:57.473Z,9.90
2023-01-19T11:51:29.078Z,9.50
2023-01-19T11:53:59.029Z,9.40
2023-01-19T11:56:30.335Z,9.17
2023-01-19T11:58:58.807Z,9.10
2023-01-19T12:01:31.945Z,9.37
2023-01-19T12:04:05.710Z,9.20
2023-01-19T12:06:38.104Z,9.87
2023-01-19T12:09:16.573Z,11.23
2023-01-19T12:11:48.905Z,10.40
2023-01-19T12:14:23.392Z,10.20
2023-01-19T12:16:54.378Z,12.00
2023-01-19T12:19:26.530Z,10.97
2023-01-19T12:21:55.404Z,11.30
2023-01-19T12:24:32.497Z,10.80
2023-01-19T12:27:05.432Z,10.60
2023-01-19T12:29:36.815Z,10.93
2023-01-19T12:32:31.402Z,13.67
2023-01-19T12:34:59.880Z,9.73
2023-01-19T12:37:38.953Z,9.77
2023-01-19T12:40:24.669Z,10.53
2023-01-19T12:43:00.721Z,9.57
2023-01-19T12:45:34.794Z,9.23
2023-01-19T12:48:05.145Z,9.83
2023-01-19T12:50:37.989Z,10.43
2023-01-19T12:53:17.210Z,10.87
2023-01-19T12:55:47.707Z,9.53
2023-01-19T12:58:19.273Z,10.67
2023-01-19T13:00:49.754Z,9.33
2023-01-19T13:03:47.442Z,9.33
2023-01-19T13:06:16.110Z,9.57
2023-01-19T13:09:01.885Z,9.03
2023-01-19T13:11:34.621Z,8.83
2023-01-19T13:14:36.148Z,11.07
2023-01-19T13:17:31.623Z,7.93
2023-01-19T13:20:20.061Z,8.10
2023-01-19T13:23:20.915Z,7.87
2023-01-19T13:25:53.363Z,8.57
2023-01-19T13:28:31.749Z,7.63
2023-01-19T13:31:03.216Z,6.90
2023-01-19T13:33:41.262Z,6.20
2023-01-19T13:36:26.519Z,8.03
2023-01-19T13:38:57.196Z,7.80
2023-01-19T13:41:29.007Z,8.83
2023-01-19T13:44:03.171Z,8.47
2023-01-19T13:46:34.792Z,9.60
2023-01-19T13:49:22.459Z,10.77
2023-01-19T13:52:12.854Z,11.03
2023-01-19T13:54:51.305Z,10.70
2023-01-19T13:57:25.538Z,10.20
2023-01-19T14:00:16.523Z,10.20
2023-01-19T14:02:57.240Z,11.93
2023-01-19T14:05:28.927Z,11.13
2023-01-19T14:08:05.780Z,11.00
2023-01-19T14:10:35.400Z,11.33
2023-01-19T14:13:06.188Z,10.43
2023-01-19T14:15:36.681Z,11.80
2023-01-19T14:18:23.829Z,10.73
2023-01-19T14:21:01.233Z,9.53
2023-01-19T14:23:45.053Z,11.43
2023-01-19T14:26:43.750Z,13.07
2023-01-19T14:29:26.204Z,13.60
2023-01-19T14:32:15.206Z,11.90
2023-01-19T14:34:46.055Z,12.20
2023-01-19T14:37:23.768Z,11.40
2023-01-19T14:39:54.650Z,12.00
2023-01-19T14:42:26.968Z,13.47
2023-01-19T14:44:58.270Z,13.87
2023-01-19T14:47:37.167Z,12.20
2023-01-19T14:50:20.397Z,11.27
2023-01-19T14:52:55.326Z,12.93
2023-01-19T14:55:36.321Z,11.53
2023-01-19T14:58:11.613Z,12.73
2023-01-19T15:00:40.496Z,12.43
2023-01-19T15:03:11.036Z,11.63
2023-01-19T15:05:41.484Z,11.57
2023-01-19T15:08:13.441Z,13.30
2023-01-19T15:10:41.965Z,12.77
2023-01-19T15:13:17.150Z,11.43
2023-01-19T15:15:45.500Z,12.03
2023-01-19T15:18:17.718Z,12.57
2023-01-19T15:20:46.257Z,13.43
2023-01-19T15:23:14.727Z,14.47
2023-01-19T15:25:43.939Z,14.90
2023-01-19T15:28:14.235Z,15.77
2023-01-19T15:30:42.850Z,16.60
2023-01-19T15:33:18.463Z,15.83
2023-01-19T15:35:46.950Z,15.90
2023-01-19T15:38:15.475Z,17.20
2023-01-19T15:40:46.952Z,17.17
2023-01-19T15:43:16.427Z,17.17
2023-01-19T15:45:48.053Z,17.60
2023-01-19T15:48:20.051Z,17.53
2023-01-19T15:50:48.366Z,17.87
2023-01-19T15:53:19.090Z,17.47
2023-01-19T15:55:51.631Z,16.73
2023-01-19T15:58:20.699Z,14.53
2023-01-19T16:00:58.772Z,14.93
2023-01-19T16:03:28.773Z,14.13
2023-01-19T16:05:57.166Z,15.63
2023-01-19T16:08:25.895Z,16.03
2023-01-19T16:10:54.242Z,16.20
2023-01-19T16:13:22.760Z,17.70
2023-01-19T16:15:51.181Z,16.27
2023-01-19T16:18:19.525Z,17.37
2023-01-19T16:20:49.446Z,17.17
2023-01-19T16:23:17.868Z,19.77
2023-01-19T16:25:46.363Z,19.80
2023-01-19T16:28:14.818Z,19.90
2023-01-19T16:30:44.043Z,20.63
2023-01-19T16:33:13.874Z,20.80
2023-01-19T16:35:42.398Z,23.00
2023-01-19T16:38:12.229Z,24.10
2023-01-19T16:40:40.594Z,24.87
2023-01-19T16:43:10.001Z,21.10
2023-01-19T16:45:58.072Z,18.90
2023-01-19T16:48:27.481Z,18.60
2023-01-19T16:51:04.084Z,18.70
2023-01-19T16:53:35.601Z,18.47
2023-01-19T16:56:06.981Z,18.13
2023-01-19T16:58:37.501Z,19.77
2023-01-19T17:01:12.184Z,19.53
2023-01-19T17:03:43.444Z,20.93
2023-01-19T17:06:13.279Z,21.20
2023-01-19T17:08:43.166Z,20.90
2023-01-19T17:11:13.387Z,21.73
2023-01-19T17:13:41.894Z,23.87
2023-01-19T17:16:10.863Z,27.27
2023-01-19T17:18:39.467Z,27.57
2023-01-19T17:21:10.660Z,26.27
2023-01-19T17:23:43.121Z,27.93
2023-01-19T17:26:12.834Z,26.40
2023-01-19T17:28:42.353Z,28.20
2023-01-19T17:31:12.670Z,29.27
2023-01-19T17:33:42.473Z,31.27
2023-01-19T17:36:13.488Z,29.03
2023-01-19T17:38:42.907Z,29.53
2023-01-19T17:41:16.391Z,29.87
2023-01-19T17:43:45.582Z,32.47
2023-01-19T17:46:14.417Z,33.20
2023-01-19T17:48:43.682Z,30.53
2023-01-19T17:51:13.632Z,30.90
2023-01-19T17:53:43.041Z,33.53
2023-01-19T17:56:13.698Z,32.80
2023-01-19T17:58:45.806Z,33.77
2023-01-19T18:01:16.558Z,33.77
2023-01-19T18:03:45.566Z,33.33
2023-01-19T18:06:14.384Z,33.57
2023-01-19T18:08:44.658Z,33.87
2023-01-19T18:11:13.936Z,34.57
2023-01-19T18:13:46.499Z,33.03
2023-01-19T18:16:17.203Z,35.40
2023-01-19T18:18:45.687Z,32.90
2023-01-19T18:21:16.017Z,33.23
2023-01-19T18:23:45.200Z,36.20
2023-01-19T18:26:15.681Z,36.27
2023-01-19T18:28:45.438Z,35.47
2023-01-19T18:31:15.806Z,35.20
2023-01-19T18:33:44.513Z,37.33
2023-01-19T18:36:14.514Z,38.13
2023-01-19T18:38:46.161Z,40.53
2023-01-19T18:41:16.458Z,45.27
2023-01-19T18:43:46.923Z,43.30
2023-01-19T18:46:16.441Z,55.80
2023-01-19T18:48:44.995Z,48.90
2023-01-19T18:51:15.685Z,44.57
2023-01-19T18:53:45.037Z,42.67
2023-01-19T18:56:15.414Z,47.67
2023-01-19T18:58:46.015Z,45.37
2023-01-19T19:01:23.452Z,48.73
2023-01-19T19:03:52.043Z,49.67
2023-01-19T19:06:20.983Z,46.70
2023-01-19T19:08:50.418Z,44.17
2023-01-19T19:11:19.172Z,47.60
2023-01-19T19:13:53.101Z,47.93
2023-01-19T19:16:21.532Z,50.10
2023-01-19T19:18:50.479Z,52.07
2023-01-19T19:21:20.440Z,51.43
2023-01-19T19:23:51.998Z,48.13
2023-01-19T19:26:21.217Z,51.67
2023-01-19T19:28:50.987Z,51.10
2023-01-19T19:31:21.521Z,49.43
2023-01-19T19:33:51.223Z,49.20
2023-01-19T19:36:21.327Z,48.00
2023-01-19T19:38:50.034Z,49.03
2023-01-19T19:41:22.041Z,48.73
2023-01-19T19:43:52.075Z,48.47
2023-01-19T19:46:22.968Z,45.60
2023-01-19T19:48:52.216Z,49.63
2023-01-19T19:51:23.607Z,47.07
2023-01-19T19:53:53.090Z,46.63
2023-01-19T19:56:23.781Z,45.50
2023-01-19T19:58:56.094Z,47.47
2023-01-19T20:01:28.510Z,46.70
2023-01-19T20:03:59.987Z,45.83
2023-01-19T20:06:29.189Z,45.80
2023-01-19T20:08:57.984Z,47.50
2023-01-19T20:11:28.769Z,45.33
2023-01-19T20:13:58.487Z,45.27
2023-01-19T20:16:27.534Z,44.00
2023-01-19T20:18:55.968Z,45.83
2023-01-19T20:21:26.520Z,45.17
2023-01-19T20:23:57.492Z,44.43
2023-01-19T20:26:28.315Z,43.70
2023-01-19T20:29:03.141Z,42.93
2023-01-19T20:31:34.045Z,42.50
2023-01-19T20:34:05.020Z,42.60
2023-01-19T20:36:33.442Z,41.33
2023-01-19T20:39:10.331Z,41.73
2023-01-19T20:41:43.727Z,37.73
2023-01-19T20:44:15.413Z,40.23
2023-01-19T20:46:44.153Z,41.47
2023-01-19T20:49:16.135Z,39.97
2023-01-19T20:51:46.722Z,40.33
2023-01-19T20:54:17.245Z,38.67
2023-01-19T20:56:45.692Z,39.17
2023-01-19T20:59:15.600Z,39.87
2023-01-19T21:01:44.647Z,39.43
2023-01-19T21:04:13.563Z,35.73
2023-01-19T21:06:42.682Z,32.43
2023-01-19T21:09:12.405Z,27.73
2023-01-19T21:11:41.680Z,27.13
2023-01-19T21:14:10.116Z,25.10
2023-01-19T21:16:39.950Z,24.50
2023-01-19T21:19:08.383Z,23.23
2023-01-19T21:21:36.833Z,21.07
2023-01-19T21:24:06.023Z,22.20
2023-01-19T21:26:35.943Z,20.27
2023-01-19T21:29:05.549Z,20.70
2023-01-19T21:31:33.977Z,20.87
2023-01-19T21:34:03.805Z,20.07
2023-01-19T21:36:32.323Z,19.90
2023-01-19T21:39:02.176Z,19.03
2023-01-19T21:41:32.124Z,20.57
2023-01-19T21:44:04.031Z,20.97
2023-01-19T21:46:33.580Z,20.93
2023-01-19T22:04:18.630Z,15.67
2023-01-19T22:06:47.138Z,17.50
2023-01-19T22:09:16.440Z,17.77
2023-01-19T22:11:44.868Z,16.47
2023-01-19T22:14:13.247Z,17.03
2023-01-19T22:16:41.672Z,17.10
2023-01-19T22:19:14.517Z,18.90
2023-01-19T22:21:44.283Z,18.87
2023-01-19T22:24:12.947Z,18.30
2023-01-19T22:26:41.494Z,19.23
2023-01-19T22:29:11.298Z,18.43
2023-01-19T22:31:40.538Z,18.63
2023-01-19T22:34:10.547Z,19.13
2023-01-19T22:36:39.388Z,19.53
2023-01-19T22:39:10.805Z,18.33
2023-01-19T22:41:40.858Z,19.73
2023-01-19T22:44:12.283Z,19.40
2023-01-19T22:46:40.935Z,20.83
2023-01-19T22:49:14.427Z,23.53
2023-01-19T22:51:44.044Z,25.17
2023-01-19T22:54:14.180Z,27.37
2023-01-19T22:56:42.984Z,28.37
2023-01-19T22:59:11.480Z,30.37
2023-01-19T23:15:55.495Z,48.17
2023-01-19T23:18:25.337Z,44.83
2023-01-19T23:20:53.759Z,49.27
2023-01-19T23:23:22.189Z,50.50
2023-01-19T23:25:50.640Z,49.90
2023-01-19T23:28:18.951Z,48.87
2023-01-19T23:30:47.494Z,49.73
2023-01-19T23:33:15.873Z,47.33
2023-01-19T23:35:45.595Z,51.47
2023-01-19T23:38:13.981Z,48.83
2023-01-19T23:40:42.278Z,48.20
2023-01-19T23:43:10.653Z,49.03
2023-01-19T23:45:40.197Z,49.23
2023-01-19T23:48:08.727Z,48.50
2023-01-19T23:50:40.861Z,49.13
2023-01-19T23:53:10.746Z,47.73
2023-01-19T23:55:39.265Z,50.53
2023-01-19T23:58:07.753Z,47.73
